首页
METAR-TAF:

METAR-TAF

机场 :

弗林特, 密歇根州, 美国

纬度: 42-58-00N, 经度: 083-44-58W, 海拔: 238米

当前天气观测

该预报发布于31分钟前的16:53 UTC
风速10节,风向北转西北
温度 23°C
湿度 69%
气压 1019 hPa
能見度: 16.1公里
散云层高于1800英尺
阴天层高于4300英尺

METAR: KFNT 241653Z 33010KT 10SM SCT018 OVC043 23/17 A3009 RMK AO2 SLP185 T02280172

时间: 13:24 (17:24 UTC)

预报

该预报发布于3小时和45分钟前的13:39 UTC
预报有效从24日的 14点(UTC)到 25日的 12点(UTC)
风速10节,风向西转西北
能見度: 10公里
散云层高于1200英尺
多云层高于2000英尺
阴天层高于3000英尺
短暂存在
从 24日的 14点(UTC)到 24日的 16点(UTC)
多云层高于1200英尺
从 24日的 1600点(UTC)
风速10节,风向西转西北
能見度: 10公里
多云层高于3000英尺
从 24日的 1800点(UTC)
风速10节,风向西转西北
能見度: 10公里
多云层高于4500英尺
从 24日的 2300点(UTC)
风速5节,风向西
能見度: 10公里
散云层高于6000英尺
从 25日的 0500点(UTC)
风速4节,风向北转东北
能見度: 10公里
少量云层高于25000英尺

TAF: KFNT 241339Z 2414/2512 29010KT P6SM SCT012 BKN020 OVC030 TEMPO 2414/2416 BKN012 FM241600 30010KT P6SM BKN030 FM241800 30010KT P6SM BKN045 FM242300 27005KT P6SM SCT060 FM250500 03004KT P6SM FEW250

超过4000个机场的气象观测和天气预报(METAR&TAF报告)。

可查询的气象台以黄色和红色小点在地图上表示。

将鼠标移到小点上方,可查看气象台名称。

然后点击查看天气观测和预报。

如需切换地图:点击带黑十字的绿色按钮放大地图;点击带横线的绿色按钮缩小地图;或者点击绿色箭头查看邻近地区的地图。


METAR-TAF: